Time;durP1;ratioP1;P1;durP2;ratioP2;P2;SDS_P1;SDS_P2;PMS_P1;PMS_P2;Temp;Humidity;BMP_temperature;BMP_pressure;BME280_temperature;BME280_humidity;BME280_pressure;Samples;Min_cycle;Max_cycle;Signal;HPM_P1;HPM_P2
2022/09/29 00:00:08;;;;;;;3.57;3.47;;;19.40;63.50;;;;;;5063421;28;43441;-75
2022/09/29 00:02:36;;;;;;;3.67;3.57;;;19.40;63.70;;;;;;5065457;28;43969;-73
2022/09/29 00:05:04;;;;;;;3.77;3.67;;;19.30;63.60;;;;;;5067766;28;45195;-78
2022/09/29 00:07:32;;;;;;;3.60;3.50;;;19.30;64.00;;;;;;5055404;28;44163;-76
2022/09/29 00:10:00;;;;;;;3.60;3.40;;;19.40;64.00;;;;;;5063655;28;44185;-76
2022/09/29 00:12:28;;;;;;;3.90;3.77;;;19.50;63.50;;;;;;5058359;28;43434;-75
2022/09/29 00:14:57;;;;;;;3.80;3.70;;;19.70;63.00;;;;;;5061384;28;45987;-74
2022/09/29 00:17:25;;;;;;;3.40;3.30;;;19.90;62.40;;;;;;5052532;28;43684;-76
2022/09/29 00:19:53;;;;;;;3.67;3.57;;;20.10;61.80;;;;;;5056017;28;43941;-75
2022/09/29 00:22:21;;;;;;;3.57;3.47;;;20.20;61.10;;;;;;5059632;28;43516;-76
2022/09/29 00:24:49;;;;;;;3.57;3.40;;;20.40;60.70;;;;;;5053985;28;43808;-76
2022/09/29 00:27:17;;;;;;;3.73;3.53;;;20.50;60.20;;;;;;5059473;28;43362;-75
2022/09/29 00:29:44;;;;;;;3.80;3.70;;;20.60;59.90;;;;;;5055727;28;43415;-75
2022/09/29 00:32:14;;;;;;;3.50;3.37;;;20.70;59.70;;;;;;5060260;28;43448;-76
2022/09/29 00:34:41;;;;;;;3.87;3.67;;;20.80;59.60;;;;;;5056460;28;43601;-75
2022/09/29 00:37:10;;;;;;;3.47;3.37;;;20.80;59.60;;;;;;5059988;28;43399;-76
2022/09/29 00:39:37;;;;;;;3.83;3.70;;;20.70;59.60;;;;;;5062548;28;44000;-76
2022/09/29 00:42:05;;;;;;;3.50;3.40;;;20.60;59.80;;;;;;5062193;28;43921;-76
2022/09/29 00:44:59;;;;;;;3.67;3.47;;;20.40;60.10;;;;;;5062825;28;43964;-76
2022/09/29 00:47:28;;;;;;;3.87;3.67;;;20.30;60.80;;;;;;5058704;28;43428;-76
2022/09/29 00:49:58;;;;;;;3.30;3.20;;;20.20;61.00;;;;;;5054715;28;43947;-76
2022/09/29 00:52:27;;;;;;;3.30;3.20;;;20.10;61.10;;;;;;5060685;28;43952;-77
2022/09/29 00:54:56;;;;;;;3.53;3.43;;;20.00;61.40;;;;;;5057332;28;45095;-76
2022/09/29 00:57:27;;;;;;;3.60;3.50;;;19.90;61.80;;;;;;5052234;28;43454;-75
2022/09/29 00:59:58;;;;;;;3.63;3.47;;;19.80;62.20;;;;;;5052661;28;43414;-76
2022/09/29 01:02:28;;;;;;;3.30;3.20;;;19.80;62.30;;;;;;5059041;28;43542;-78
2022/09/29 01:04:56;;;;;;;3.67;3.50;;;19.70;62.10;;;;;;5050909;28;43609;-76
2022/09/29 01:07:24;;;;;;;3.10;3.00;;;19.70;62.40;;;;;;5057175;28;43992;-74
2022/09/29 01:09:53;;;;;;;3.50;3.40;;;19.70;62.50;;;;;;5050352;28;44189;-76
2022/09/29 01:12:20;;;;;;;3.63;3.37;;;19.60;62.70;;;;;;5051685;28;43519;-77
2022/09/29 01:14:48;;;;;;;3.50;3.40;;;19.60;62.90;;;;;;5054909;28;43934;-75
2022/09/29 01:17:16;;;;;;;3.73;3.53;;;19.60;62.70;;;;;;5055753;28;43772;-76
2022/09/29 01:19:49;;;;;;;3.33;3.23;;;19.70;62.40;;;;;;5057152;28;43649;-78
2022/09/29 01:22:25;;;;;;;3.67;3.53;;;19.90;62.00;;;;;;5062524;28;43523;-78
2022/09/29 01:24:58;;;;;;;3.60;3.50;;;20.00;61.50;;;;;;5057066;28;43935;-78
2022/09/29 01:28:08;;;;;;;3.40;3.30;;;20.00;61.30;;;;;;5052405;28;43561;-77
2022/09/29 01:30:56;;;;;;;3.40;3.20;;;20.00;61.30;;;;;;5017227;28;44001;-74
2022/09/29 01:33:27;;;;;;;3.30;3.20;;;19.90;61.70;;;;;;5054514;28;43412;-76
2022/09/29 01:36:00;;;;;;;3.60;3.50;;;19.80;62.00;;;;;;5061937;28;45727;-76
2022/09/29 01:38:36;;;;;;;2.97;2.97;;;19.70;62.40;;;;;;5060013;28;44345;-75
2022/09/29 01:41:07;;;;;;;3.97;3.87;;;19.70;62.40;;;;;;5052111;28;43439;-75
2022/09/29 01:43:36;;;;;;;3.00;2.90;;;19.70;62.50;;;;;;5054905;28;43459;-71
2022/09/29 01:46:08;;;;;;;2.90;2.80;;;19.60;62.70;;;;;;5051003;28;43615;-75
2022/09/29 01:48:38;;;;;;;3.27;3.17;;;19.50;62.60;;;;;;5054838;28;43412;-76
2022/09/29 01:51:09;;;;;;;3.13;3.03;;;19.50;63.00;;;;;;5057413;28;43449;-76
2022/09/29 01:53:38;;;;;;;3.30;3.20;;;19.50;63.00;;;;;;5055766;28;44060;-77
2022/09/29 01:56:09;;;;;;;3.30;3.20;;;19.60;62.70;;;;;;5061695;28;43861;-78
2022/09/29 01:58:40;;;;;;;3.10;3.00;;;19.70;62.40;;;;;;5056197;28;43850;-77
2022/09/29 02:01:10;;;;;;;3.20;3.10;;;19.80;62.20;;;;;;5050611;28;43489;-78
2022/09/29 02:03:41;;;;;;;3.50;3.40;;;19.70;62.00;;;;;;5054562;28;43988;-79
2022/09/29 02:06:10;;;;;;;2.97;2.87;;;19.70;62.40;;;;;;5061594;28;45572;-76
2022/09/29 02:08:40;;;;;;;3.33;3.23;;;19.70;62.40;;;;;;5049992;28;43379;-77
2022/09/29 02:11:10;;;;;;;3.53;3.43;;;19.70;62.40;;;;;;5051968;28;43996;-78
2022/09/29 02:13:39;;;;;;;3.10;3.00;;;19.60;62.40;;;;;;5048329;28;43415;-74
2022/09/29 02:16:10;;;;;;;3.37;3.20;;;19.50;62.50;;;;;;5048937;28;43834;-76
2022/09/29 02:18:42;;;;;;;3.20;3.10;;;19.50;63.00;;;;;;5048897;28;43358;-77
2022/09/29 02:21:10;;;;;;;3.07;2.97;;;19.50;62.90;;;;;;5057906;28;43396;-77
2022/09/29 02:23:37;;;;;;;3.10;3.00;;;19.50;62.80;;;;;;5058815;28;43445;-76
2022/09/29 02:26:05;;;;;;;3.10;3.00;;;19.50;62.90;;;;;;5050681;28;43607;-77
2022/09/29 02:28:33;;;;;;;3.10;3.00;;;19.50;62.90;;;;;;5058134;28;43556;-78
2022/09/29 02:31:01;;;;;;;3.10;3.00;;;19.40;63.00;;;;;;5050853;28;43485;-77
2022/09/29 02:33:31;;;;;;;3.50;3.30;;;19.40;63.30;;;;;;5054110;28;43407;-78
2022/09/29 02:36:06;;;;;;;3.00;2.90;;;19.50;63.20;;;;;;5055580;28;43830;-77
2022/09/29 02:38:40;;;;;;;3.13;3.03;;;19.60;62.80;;;;;;5054872;28;43558;-76
2022/09/29 02:41:14;;;;;;;3.00;2.90;;;19.80;62.40;;;;;;5059271;28;43415;-77
2022/09/29 02:43:56;;;;;;;3.17;3.07;;;19.80;61.90;;;;;;5050936;28;43414;-76
2022/09/29 02:46:33;;;;;;;3.07;2.97;;;19.90;61.80;;;;;;5063453;28;46146;-75
2022/09/29 02:49:31;;;;;;;2.73;2.70;;;19.80;61.80;;;;;;5054001;28;43516;-76
2022/09/29 02:52:00;;;;;;;2.43;2.40;;;19.70;62.10;;;;;;5059635;28;43451;-76
2022/09/29 02:54:38;;;;;;;3.17;3.07;;;19.60;62.30;;;;;;5054437;28;43438;-76
2022/09/29 02:57:12;;;;;;;2.80;2.70;;;19.60;62.80;;;;;;5060610;28;45578;-77
2022/09/29 02:59:44;;;;;;;3.07;2.97;;;19.50;62.70;;;;;;5061585;28;44724;-78
2022/09/29 03:02:13;;;;;;;2.90;2.80;;;19.50;62.70;;;;;;5057826;28;43566;-76
2022/09/29 03:04:42;;;;;;;2.40;2.40;;;19.50;62.70;;;;;;5054545;28;43423;-76
2022/09/29 03:07:10;;;;;;;2.67;2.67;;;19.40;62.80;;;;;;5057150;28;45897;-77
2022/09/29 03:09:38;;;;;;;2.70;2.60;;;19.40;63.20;;;;;;5061626;28;44612;-76
2022/09/29 03:12:06;;;;;;;2.73;2.63;;;19.40;63.90;;;;;;5056901;28;43467;-77
2022/09/29 03:14:34;;;;;;;2.97;2.87;;;19.50;62.90;;;;;;5061344;28;44104;-76
2022/09/29 03:17:02;;;;;;;3.27;3.17;;;19.60;62.60;;;;;;5055478;28;43867;-76
2022/09/29 03:19:30;;;;;;;2.67;2.67;;;19.60;62.40;;;;;;5053260;28;43945;-76
2022/09/29 03:21:59;;;;;;;2.63;2.60;;;19.60;62.50;;;;;;5059213;28;44103;-76
2022/09/29 03:24:27;;;;;;;3.03;2.93;;;19.50;62.70;;;;;;5053545;28;43386;-77
2022/09/29 03:26:55;;;;;;;3.10;3.00;;;19.60;62.70;;;;;;5059333;28;43600;-76
2022/09/29 03:29:23;;;;;;;2.63;2.53;;;19.50;62.50;;;;;;5063680;28;43586;-76
2022/09/29 03:31:51;;;;;;;2.37;2.37;;;19.50;62.60;;;;;;5053226;28;43420;-76
2022/09/29 03:34:19;;;;;;;2.57;2.47;;;19.50;62.70;;;;;;5056534;28;43500;-78
2022/09/29 03:36:47;;;;;;;2.63;2.63;;;19.40;62.80;;;;;;5045513;28;45610;-75
2022/09/29 03:39:16;;;;;;;2.60;2.50;;;19.40;63.10;;;;;;5057601;28;43827;-77
2022/09/29 03:41:45;;;;;;;2.80;2.70;;;19.40;63.00;;;;;;5056020;28;43269;-77
2022/09/29 03:44:13;;;;;;;2.37;2.37;;;19.40;62.90;;;;;;5059730;28;43419;-78
2022/09/29 03:46:41;;;;;;;2.60;2.60;;;19.40;63.00;;;;;;5054870;28;43877;-76
2022/09/29 03:49:10;;;;;;;2.40;2.40;;;19.40;63.00;;;;;;5056538;28;44099;-77
2022/09/29 03:51:38;;;;;;;2.80;2.70;;;19.40;63.20;;;;;;5054933;28;43411;-77
2022/09/29 03:54:06;;;;;;;2.50;2.40;;;19.40;63.30;;;;;;5052715;28;44051;-76
2022/09/29 03:56:36;;;;;;;2.57;2.57;;;19.40;63.00;;;;;;5055163;28;43671;-77
2022/09/29 03:59:04;;;;;;;2.67;2.57;;;19.60;62.70;;;;;;5060631;28;44466;-78
2022/09/29 04:01:32;;;;;;;2.50;2.43;;;19.70;62.20;;;;;;5051775;28;43438;-77
2022/09/29 04:04:00;;;;;;;2.50;2.40;;;19.80;61.90;;;;;;5050304;28;43439;-78
2022/09/29 04:06:28;;;;;;;2.80;2.77;;;19.80;61.70;;;;;;5055356;28;43877;-76
2022/09/29 04:08:56;;;;;;;2.63;2.53;;;19.80;61.90;;;;;;5060288;28;43459;-75
2022/09/29 04:11:24;;;;;;;2.40;2.33;;;19.70;62.10;;;;;;5058198;28;43442;-77
2022/09/29 04:13:53;;;;;;;2.40;2.30;;;19.60;62.30;;;;;;5065835;28;43492;-77
2022/09/29 04:16:21;;;;;;;2.27;2.27;;;19.50;62.50;;;;;;5050041;28;43931;-77
2022/09/29 04:18:49;;;;;;;2.60;2.50;;;19.50;62.70;;;;;;5049954;28;43973;-77
2022/09/29 04:21:17;;;;;;;3.40;2.80;;;19.50;62.70;;;;;;5060408;28;43930;-77
2022/09/29 04:23:45;;;;;;;2.27;2.27;;;19.50;62.70;;;;;;5051500;28;43434;-74
2022/09/29 04:26:13;;;;;;;2.90;2.40;;;19.40;62.70;;;;;;5059751;28;45599;-77
2022/09/29 04:28:41;;;;;;;2.60;2.40;;;19.40;62.80;;;;;;5052468;28;43474;-76
2022/09/29 04:31:10;;;;;;;2.83;2.60;;;19.40;63.10;;;;;;5059071;28;43422;-77
2022/09/29 04:33:39;;;;;;;2.60;2.40;;;19.40;63.00;;;;;;5052536;28;43384;-76
2022/09/29 04:36:07;;;;;;;3.03;2.33;;;19.40;63.00;;;;;;5055032;28;43961;-77
2022/09/29 04:38:35;;;;;;;2.20;2.20;;;19.40;63.00;;;;;;5055639;28;43500;-75
2022/09/29 04:41:03;;;;;;;2.43;2.33;;;19.30;62.90;;;;;;5054565;28;43522;-77
2022/09/29 04:43:31;;;;;;;2.50;2.40;;;19.30;63.20;;;;;;5035108;28;43553;-77
2022/09/29 04:46:04;;;;;;;2.40;2.30;;;19.40;63.10;;;;;;5055220;28;43944;-76
2022/09/29 04:48:33;;;;;;;2.63;2.53;;;19.50;62.70;;;;;;5051485;28;43517;-77
2022/09/29 04:51:03;;;;;;;2.27;2.27;;;19.60;62.20;;;;;;5061455;28;43453;-77
2022/09/29 04:53:31;;;;;;;2.60;2.50;;;19.70;62.00;;;;;;5050282;28;43597;-77
2022/09/29 04:55:59;;;;;;;2.63;2.53;;;19.70;61.90;;;;;;5057008;28;43931;-78
2022/09/29 04:58:27;;;;;;;2.60;2.50;;;19.60;62.10;;;;;;5052284;28;43546;-76
2022/09/29 05:00:55;;;;;;;2.50;2.20;;;19.60;62.10;;;;;;5052409;28;43395;-76
2022/09/29 05:03:24;;;;;;;2.20;2.20;;;19.60;62.10;;;;;;5054795;28;43424;-76
2022/09/29 05:05:56;;;;;;;2.27;2.27;;;19.60;62.20;;;;;;5064891;28;46221;-76
2022/09/29 05:08:24;;;;;;;2.30;2.30;;;19.50;62.40;;;;;;5047365;28;44041;-77
2022/09/29 05:10:52;;;;;;;2.60;2.50;;;19.50;62.50;;;;;;5058219;28;43487;-76
2022/09/29 05:13:19;;;;;;;2.60;2.50;;;19.50;62.90;;;;;;5055163;28;43993;-74
2022/09/29 05:15:47;;;;;;;2.50;2.50;;;19.40;62.60;;;;;;5052494;28;45726;-76
2022/09/29 05:18:15;;;;;;;2.47;2.37;;;19.40;62.60;;;;;;5052570;28;44012;-76
2022/09/29 05:20:43;;;;;;;2.10;2.10;;;19.40;62.60;;;;;;5051645;28;43462;-78
2022/09/29 05:23:32;;;;;;;2.77;2.57;;;19.40;62.70;;;;;;5052343;28;43498;-76
2022/09/29 05:26:02;;;;;;;2.73;2.60;;;19.40;63.00;;;;;;5051844;28;43713;-78
2022/09/29 05:28:29;;;;;;;2.33;2.33;;;19.40;63.10;;;;;;5052823;28;43526;-76
2022/09/29 05:31:01;;;;;;;2.43;2.40;;;19.50;62.90;;;;;;5051058;28;43461;-75
2022/09/29 05:33:29;;;;;;;2.50;2.40;;;19.60;62.50;;;;;;5051455;28;43673;-76
2022/09/29 05:35:57;;;;;;;2.83;2.73;;;19.70;62.00;;;;;;5051309;28;43900;-74
2022/09/29 05:38:25;;;;;;;2.60;2.50;;;19.80;61.70;;;;;;5056303;28;43958;-77
2022/09/29 05:40:54;;;;;;;2.43;2.40;;;19.80;61.50;;;;;;5048597;28;43403;-77
2022/09/29 05:43:22;;;;;;;2.33;2.33;;;19.70;61.70;;;;;;5060083;28;43432;-76
2022/09/29 05:45:50;;;;;;;2.40;2.23;;;19.60;61.90;;;;;;5052477;28;43917;-78
2022/09/29 05:48:18;;;;;;;2.20;2.20;;;19.60;62.20;;;;;;5056854;28;43474;-75
2022/09/29 05:50:46;;;;;;;2.47;2.37;;;19.50;62.40;;;;;;5060307;28;43506;-76
2022/09/29 05:53:14;;;;;;;2.53;2.53;;;19.50;62.60;;;;;;5035573;28;43637;-75
2022/09/29 05:55:42;;;;;;;2.30;2.30;;;19.50;62.50;;;;;;5052046;28;43892;-77
2022/09/29 05:58:11;;;;;;;2.40;2.30;;;19.40;62.50;;;;;;5059553;28;43441;-76
2022/09/29 06:00:39;;;;;;;2.40;2.40;;;19.40;62.60;;;;;;5053447;28;43520;-77
2022/09/29 06:03:07;;;;;;;2.40;2.40;;;19.40;62.70;;;;;;5056662;28;43445;-78
2022/09/29 06:05:38;;;;;;;2.47;2.47;;;19.40;63.00;;;;;;5051298;28;44095;-74
2022/09/29 06:08:06;;;;;;;2.30;2.30;;;19.40;63.00;;;;;;5059065;28;43440;-76
2022/09/29 06:10:34;;;;;;;2.60;2.40;;;19.50;62.60;;;;;;5058156;28;43501;-75
2022/09/29 06:13:03;;;;;;;1.87;1.87;;;19.60;62.20;;;;;;5055534;28;43521;-77
2022/09/29 06:15:32;;;;;;;2.60;2.50;;;19.60;62.00;;;;;;5050754;28;43921;-77
2022/09/29 06:18:00;;;;;;;2.63;2.60;;;19.60;62.10;;;;;;5046657;28;45133;-75
2022/09/29 06:20:28;;;;;;;2.60;2.50;;;19.50;62.30;;;;;;5052605;28;43423;-76
2022/09/29 06:22:56;;;;;;;2.30;2.30;;;19.50;63.00;;;;;;5054981;28;43588;-75
2022/09/29 06:25:24;;;;;;;2.30;2.30;;;19.50;62.30;;;;;;5059686;28;44036;-77
2022/09/29 06:27:52;;;;;;;2.33;2.33;;;19.50;62.40;;;;;;5048098;28;44000;-77
2022/09/29 06:30:20;;;;;;;2.40;2.40;;;19.50;62.50;;;;;;5056711;28;43815;-77
2022/09/29 06:32:49;;;;;;;2.70;2.60;;;19.40;62.70;;;;;;5053070;28;43471;-77
2022/09/29 06:38:02;;;;;;;2.27;2.17;;;19.40;62.70;;;;;;5058276;28;43467;-74
2022/09/29 06:40:30;;;;;;;2.20;2.20;;;19.40;62.70;;;;;;5035591;28;43953;-76
2022/09/29 06:42:58;;;;;;;2.20;2.20;;;19.40;62.80;;;;;;5049977;28;43729;-76
2022/09/29 06:45:26;;;;;;;2.27;2.27;;;19.40;62.90;;;;;;5061188;28;46015;-76
2022/09/29 06:47:59;;;;;;;2.47;2.47;;;19.30;63.10;;;;;;5039889;28;44963;-75
2022/09/29 06:50:27;;;;;;;2.60;2.50;;;19.40;63.00;;;;;;5047897;28;43450;-78
2022/09/29 06:52:55;;;;;;;2.37;2.37;;;19.50;62.70;;;;;;5049387;28;44110;-76
2022/09/29 06:55:31;;;;;;;2.27;2.27;;;19.60;62.30;;;;;;5049726;28;43744;-75
2022/09/29 06:57:59;;;;;;;2.43;2.30;;;19.70;62.10;;;;;;5056702;28;43454;-77
2022/09/29 07:00:31;;;;;;;2.40;2.40;;;19.60;62.10;;;;;;5058167;28;43485;-78
2022/09/29 07:03:01;;;;;;;3.07;2.97;;;19.60;62.30;;;;;;5051158;28;43479;-76
2022/09/29 07:05:28;;;;;;;2.50;2.50;;;19.60;62.30;;;;;;5051003;28;43565;-78
2022/09/29 07:07:56;;;;;;;2.33;2.33;;;19.60;62.30;;;;;;5062439;28;43455;-77
2022/09/29 07:10:28;;;;;;;2.10;2.10;;;19.50;62.40;;;;;;5056014;28;43472;-77
2022/09/29 07:12:56;;;;;;;2.60;2.50;;;19.50;62.50;;;;;;5053506;28;43488;-77
2022/09/29 07:15:30;;;;;;;2.17;2.17;;;19.40;62.70;;;;;;5051265;28;43947;-76
2022/09/29 07:17:58;;;;;;;2.37;2.37;;;19.40;62.90;;;;;;5062105;28;44501;-78
2022/09/29 07:20:28;;;;;;;2.47;2.47;;;19.40;62.80;;;;;;5049928;28;43426;-76
2022/09/29 07:22:56;;;;;;;2.30;2.30;;;19.40;62.80;;;;;;5061014;28;43499;-77
2022/09/29 07:25:24;;;;;;;2.50;2.50;;;19.40;62.90;;;;;;5032080;28;45527;-75
2022/09/29 07:28:12;;;;;;;2.80;2.60;;;19.40;63.00;;;;;;5051010;28;43466;-78
2022/09/29 07:30:40;;;;;;;2.47;2.37;;;19.30;63.20;;;;;;5049703;28;43884;-77
2022/09/29 07:33:08;;;;;;;2.30;2.30;;;19.40;63.10;;;;;;5052544;28;43809;-75
2022/09/29 07:35:37;;;;;;;2.27;2.27;;;19.50;62.80;;;;;;5056175;28;43652;-77
2022/09/29 07:38:07;;;;;;;2.47;2.47;;;19.60;62.40;;;;;;5060350;28;44601;-78
2022/09/29 07:40:35;;;;;;;2.43;2.43;;;19.60;62.20;;;;;;5051934;28;43460;-75
2022/09/29 07:43:03;;;;;;;2.60;2.60;;;19.50;62.30;;;;;;5057036;28;43583;-78
2022/09/29 07:45:31;;;;;;;2.80;2.70;;;19.50;62.60;;;;;;5063159;28;43857;-77
2022/09/29 07:48:00;;;;;;;2.40;2.40;;;19.50;62.50;;;;;;5047650;28;44671;-76
2022/09/29 07:50:27;;;;;;;2.73;2.67;;;19.50;62.50;;;;;;5055933;28;43505;-76
2022/09/29 07:52:57;;;;;;;2.43;2.43;;;19.40;62.50;;;;;;5055135;28;43421;-78
2022/09/29 07:55:25;;;;;;;2.27;2.27;;;19.40;63.40;;;;;;5055400;28;43925;-75
2022/09/29 07:57:53;;;;;;;2.40;2.40;;;19.40;62.90;;;;;;5060817;28;44851;-72
2022/09/29 08:00:20;;;;;;;2.40;2.37;;;19.40;63.20;;;;;;5062944;28;43381;-73
2022/09/29 08:02:48;;;;;;;2.50;2.40;;;19.40;63.00;;;;;;5063166;28;43499;-75
2022/09/29 08:05:16;;;;;;;2.37;2.37;;;19.50;62.60;;;;;;5056590;28;44004;-75
2022/09/29 08:07:44;;;;;;;2.33;2.33;;;19.60;62.40;;;;;;5058324;28;43417;-77
2022/09/29 08:10:14;;;;;;;2.87;2.77;;;19.50;62.30;;;;;;5051289;28;43325;-74
2022/09/29 08:12:44;;;;;;;2.50;2.50;;;19.50;62.50;;;;;;5053316;28;43456;-75
2022/09/29 08:15:12;;;;;;;2.60;2.60;;;19.50;62.70;;;;;;5055028;28;43608;-78
2022/09/29 08:17:40;;;;;;;2.50;2.50;;;19.50;62.60;;;;;;5043417;28;44255;-78
2022/09/29 08:20:08;;;;;;;2.47;2.47;;;19.50;62.70;;;;;;5060133;28;43558;-77
2022/09/29 08:22:36;;;;;;;2.33;2.33;;;19.40;62.70;;;;;;5051757;28;43524;-76
2022/09/29 08:25:05;;;;;;;3.70;3.60;;;19.40;62.80;;;;;;5058277;28;43929;-78
2022/09/29 08:27:34;;;;;;;3.10;2.77;;;19.30;62.60;;;;;;5052298;28;43391;-76
2022/09/29 08:30:17;;;;;;;2.70;2.57;;;19.40;62.60;;;;;;5057516;28;43389;-76
2022/09/29 08:32:50;;;;;;;2.30;2.30;;;19.40;62.70;;;;;;5058036;28;43937;-76
2022/09/29 08:35:18;;;;;;;2.80;2.80;;;19.30;62.70;;;;;;5058221;28;43837;-78
2022/09/29 08:37:47;;;;;;;2.80;2.70;;;19.30;62.80;;;;;;5057703;28;43417;-77
2022/09/29 08:40:16;;;;;;;2.50;2.50;;;19.30;63.20;;;;;;5063022;28;43414;-77
2022/09/29 08:42:51;;;;;;;3.00;2.90;;;19.30;63.20;;;;;;5055005;28;43446;-77
2022/09/29 08:45:24;;;;;;;2.60;2.60;;;19.40;62.80;;;;;;5055357;28;43845;-77
2022/09/29 08:47:52;;;;;;;2.40;2.40;;;19.50;62.40;;;;;;5065653;28;45805;-75
2022/09/29 08:50:25;;;;;;;2.43;2.43;;;19.70;62.00;;;;;;5055379;28;43404;-78
2022/09/29 08:52:55;;;;;;;2.80;2.70;;;19.80;61.70;;;;;;5050111;28;43482;-76
2022/09/29 08:55:26;;;;;;;2.70;2.60;;;19.70;61.70;;;;;;5053520;28;43908;-76
2022/09/29 08:57:57;;;;;;;2.63;2.63;;;19.70;62.00;;;;;;5049027;28;44023;-75
2022/09/29 09:00:31;;;;;;;2.50;2.50;;;19.60;62.20;;;;;;5057529;28;43499;-77
2022/09/29 09:03:07;;;;;;;2.60;2.50;;;19.50;62.40;;;;;;5054096;28;43400;-77
2022/09/29 09:05:43;;;;;;;2.43;2.33;;;19.40;63.20;;;;;;5052649;28;43961;-73
2022/09/29 09:08:14;;;;;;;2.60;2.60;;;19.50;63.30;;;;;;5065886;28;44744;-76
2022/09/29 09:10:46;;;;;;;2.60;2.50;;;19.40;63.00;;;;;;5051610;28;44194;-76
2022/09/29 09:13:44;;;;;;;2.40;2.40;;;19.40;63.10;;;;;;5052359;28;43414;-75
2022/09/29 09:16:16;;;;;;;2.57;2.47;;;19.40;63.30;;;;;;5062772;28;43842;-75
2022/09/29 09:19:25;;;;;;;2.30;2.30;;;19.30;63.80;;;;;;5048994;28;43950;-77
2022/09/29 09:21:57;;;;;;;2.57;2.50;;;19.40;64.10;;;;;;5024712;28;43498;-79
2022/09/29 09:24:28;;;;;;;2.70;2.60;;;19.50;63.60;;;;;;5055938;28;44048;-76
2022/09/29 09:26:57;;;;;;;2.30;2.30;;;19.60;63.30;;;;;;5055491;28;45152;-75
2022/09/29 09:29:28;;;;;;;2.57;2.47;;;19.60;63.10;;;;;;5036156;28;44049;-75
2022/09/29 09:32:03;;;;;;;2.50;2.47;;;19.60;63.20;;;;;;5054792;28;43384;-76
2022/09/29 09:34:33;;;;;;;2.40;2.40;;;19.60;63.70;;;;;;5051978;28;43423;-79
2022/09/29 09:37:12;;;;;;;2.37;2.37;;;19.60;63.50;;;;;;5052848;28;43746;-77
2022/09/29 09:39:42;;;;;;;2.57;2.47;;;19.50;63.30;;;;;;5059821;28;43354;-76
2022/09/29 09:42:14;;;;;;;2.13;2.13;;;19.50;63.30;;;;;;5058380;28;43477;-75
2022/09/29 09:44:47;;;;;;;2.17;2.17;;;19.50;63.40;;;;;;5058966;28;43473;-76
2022/09/29 09:47:22;;;;;;;2.33;2.33;;;19.40;64.10;;;;;;5053735;28;43896;-78
2022/09/29 09:49:52;;;;;;;2.60;2.50;;;19.40;64.20;;;;;;5049416;28;43995;-76
2022/09/29 09:52:22;;;;;;;2.53;2.33;;;19.40;63.90;;;;;;5053146;28;43435;-75
2022/09/29 09:54:51;;;;;;;2.27;2.27;;;19.40;63.70;;;;;;5036830;28;43586;-78
2022/09/29 09:57:44;;;;;;;2.70;2.60;;;19.40;63.80;;;;;;5059034;28;43588;-78
2022/09/29 10:00:14;;;;;;;2.23;2.23;;;19.40;64.30;;;;;;5051999;28;43490;-76
2022/09/29 10:02:45;;;;;;;2.43;2.33;;;19.40;64.60;;;;;;5051220;28;43453;-77
2022/09/29 10:05:13;;;;;;;2.50;2.50;;;19.50;64.10;;;;;;5045392;28;44173;-77
2022/09/29 10:07:41;;;;;;;2.67;2.67;;;19.70;63.80;;;;;;5060191;28;45587;-78
2022/09/29 10:10:15;;;;;;;2.30;2.30;;;19.80;63.30;;;;;;5056244;28;43470;-77
2022/09/29 10:12:44;;;;;;;2.53;2.40;;;19.90;63.10;;;;;;5059202;28;43425;-77
2022/09/29 10:15:23;;;;;;;2.70;2.60;;;19.80;62.90;;;;;;5050094;28;43383;-76
2022/09/29 10:17:56;;;;;;;2.60;2.50;;;19.80;63.00;;;;;;5049023;28;43958;-77
2022/09/29 10:20:31;;;;;;;2.60;2.50;;;19.70;63.10;;;;;;5040827;28;44556;-75
2022/09/29 10:23:19;;;;;;;3.17;2.97;;;19.60;63.30;;;;;;5048702;28;44098;-77
2022/09/29 10:25:52;;;;;;;3.37;3.07;;;19.50;64.10;;;;;;5036507;28;43391;-76
2022/09/29 10:28:20;;;;;;;3.43;3.23;;;19.50;64.10;;;;;;5032443;28;45612;-78
2022/09/29 10:30:49;;;;;;;4.70;3.30;;;19.50;63.90;;;;;;5050576;28;43939;-76
2022/09/29 10:33:18;;;;;;;4.37;3.30;;;19.50;63.90;;;;;;5051294;28;43413;-77
2022/09/29 10:35:46;;;;;;;5.40;3.47;;;19.50;64.00;;;;;;5055418;28;43408;-77
2022/09/29 10:38:18;;;;;;;4.13;3.30;;;19.40;64.40;;;;;;5052169;28;45944;-77
2022/09/29 10:40:57;;;;;;;4.00;3.40;;;19.40;64.60;;;;;;5054219;28;43436;-77
2022/09/29 10:43:26;;;;;;;5.00;3.53;;;19.40;64.30;;;;;;5033044;28;43879;-76
2022/09/29 10:45:57;;;;;;;3.57;3.10;;;19.40;64.10;;;;;;5062130;28;44528;-75
2022/09/29 10:48:25;;;;;;;3.83;3.53;;;19.40;64.20;;;;;;5048972;28;43886;-77
2022/09/29 10:50:55;;;;;;;4.27;3.87;;;19.40;64.40;;;;;;5030731;28;44294;-78
2022/09/29 10:53:33;;;;;;;4.83;3.80;;;19.40;65.10;;;;;;5054855;28;43335;-76
2022/09/29 10:56:04;;;;;;;3.87;3.50;;;19.50;64.60;;;;;;5064890;28;43851;-77
2022/09/29 10:58:33;;;;;;;4.30;4.00;;;19.60;64.20;;;;;;5054194;28;44029;-78
2022/09/29 11:01:24;;;;;;;4.30;3.77;;;19.80;63.70;;;;;;5058960;28;43993;-76
2022/09/29 11:03:53;;;;;;;3.87;3.57;;;19.90;63.40;;;;;;5056553;28;43302;-76
2022/09/29 11:06:26;;;;;;;4.27;3.70;;;19.90;63.20;;;;;;5056335;28;43386;-78
2022/09/29 11:08:58;;;;;;;3.53;3.23;;;19.80;63.20;;;;;;5052441;28;43858;-78
2022/09/29 11:11:28;;;;;;;3.60;3.30;;;19.70;63.40;;;;;;5054255;28;43925;-76
2022/09/29 11:13:56;;;;;;;4.80;3.50;;;19.60;63.60;;;;;;5055663;28;43579;-75
2022/09/29 11:16:30;;;;;;;4.63;3.70;;;19.60;64.50;;;;;;5054626;28;43881;-76
2022/09/29 11:19:01;;;;;;;4.03;3.60;;;19.50;64.30;;;;;;5067006;28;45788;-78
2022/09/29 11:21:48;;;;;;;3.73;3.37;;;19.50;64.10;;;;;;5057857;28;44102;-74
2022/09/29 11:24:18;;;;;;;3.63;3.33;;;19.50;64.10;;;;;;5059632;28;43380;-75
2022/09/29 11:26:48;;;;;;;3.50;3.20;;;19.40;64.10;;;;;;5058463;28;43423;-76
2022/09/29 11:29:28;;;;;;;3.70;3.50;;;19.40;64.80;;;;;;5056296;28;43925;-76
2022/09/29 11:32:19;;;;;;;3.30;3.10;;;19.50;65.00;;;;;;5033906;28;44544;-75
2022/09/29 11:34:56;;;;;;;3.97;3.73;;;19.60;64.50;;;;;;5052263;28;43479;-77
2022/09/29 11:37:31;;;;;;;3.63;3.23;;;19.70;64.20;;;;;;5060654;28;43523;-77
2022/09/29 11:40:11;;;;;;;3.20;3.03;;;19.70;64.00;;;;;;5051713;28;43901;-76
2022/09/29 11:42:51;;;;;;;3.53;3.30;;;19.60;64.10;;;;;;5055218;28;43384;-78
2022/09/29 11:45:23;;;;;;;3.73;3.43;;;19.60;64.50;;;;;;5054778;28;43425;-75
2022/09/29 11:48:28;;;;;;;3.87;3.60;;;19.60;64.10;;;;;;5046426;28;43991;-75
2022/09/29 11:51:00;;;;;;;3.00;2.90;;;19.50;64.10;;;;;;5052851;28;45577;-77
2022/09/29 11:53:45;;;;;;;3.63;3.33;;;19.50;64.20;;;;;;5059050;28;43484;-76
2022/09/29 11:56:22;;;;;;;3.13;3.00;;;19.50;64.40;;;;;;5048450;28;43478;-75
2022/09/29 11:58:56;;;;;;;3.57;3.37;;;19.40;64.80;;;;;;5052749;28;43409;-79
2022/09/29 12:01:29;;;;;;;3.43;3.13;;;19.50;64.70;;;;;;5054779;28;43932;-76
2022/09/29 12:04:14;;;;;;;3.30;3.10;;;19.50;64.60;;;;;;5066922;28;44595;-76
2022/09/29 12:06:52;;;;;;;2.93;2.77;;;19.40;64.40;;;;;;5066923;28;43483;-78
2022/09/29 12:09:40;;;;;;;2.73;2.63;;;19.40;64.60;;;;;;5055484;28;43403;-76
2022/09/29 12:12:11;;;;;;;3.40;3.20;;;19.40;65.30;;;;;;5060402;28;43737;-76
2022/09/29 12:15:03;;;;;;;3.53;3.23;;;19.40;65.10;;;;;;5057007;28;43627;-77
2022/09/29 12:17:33;;;;;;;3.03;2.83;;;19.60;64.80;;;;;;5057476;28;43915;-76
2022/09/29 12:20:05;;;;;;;3.20;3.00;;;19.70;64.20;;;;;;5031671;28;43496;-77
2022/09/29 12:22:33;;;;;;;2.90;2.70;;;19.80;63.70;;;;;;5053767;28;43592;-77
2022/09/29 12:25:05;;;;;;;2.50;2.40;;;19.90;63.60;;;;;;5059879;28;43464;-76
2022/09/29 12:27:35;;;;;;;3.23;2.93;;;19.80;63.50;;;;;;5052632;28;43419;-75
2022/09/29 12:30:05;;;;;;;3.33;3.13;;;19.70;63.70;;;;;;5061911;28;43392;-76
2022/09/29 12:32:35;;;;;;;2.77;2.67;;;19.60;63.80;;;;;;5056138;28;43914;-77
2022/09/29 12:35:06;;;;;;;2.80;2.70;;;19.60;64.10;;;;;;5054502;28;44255;-76
2022/09/29 12:37:36;;;;;;;2.97;2.80;;;19.50;64.70;;;;;;5056718;28;43451;-77
2022/09/29 12:40:09;;;;;;;3.03;2.70;;;19.50;64.60;;;;;;5054386;28;43393;-76
2022/09/29 12:42:58;;;;;;;2.93;2.73;;;19.50;64.50;;;;;;5056211;28;43859;-77
2022/09/29 12:45:28;;;;;;;2.23;2.13;;;19.50;64.50;;;;;;5064847;28;44339;-76
2022/09/29 12:48:12;;;;;;;3.10;3.00;;;19.50;64.60;;;;;;5036516;28;43434;-76
2022/09/29 12:50:44;;;;;;;2.60;2.50;;;19.40;65.10;;;;;;5053942;28;43605;-75
2022/09/29 12:53:14;;;;;;;2.70;2.60;;;19.40;65.00;;;;;;5050747;28;43763;-77
2022/09/29 12:55:46;;;;;;;2.73;2.60;;;19.50;64.90;;;;;;5061866;28;45042;-77
2022/09/29 12:58:18;;;;;;;2.57;2.47;;;19.40;64.60;;;;;;5065254;28;43827;-77
2022/09/29 13:00:47;;;;;;;2.63;2.53;;;19.40;64.70;;;;;;5051879;28;43423;-77
2022/09/29 13:03:44;;;;;;;2.60;2.50;;;19.40;64.80;;;;;;5062525;28;43808;-76
2022/09/29 13:06:55;;;;;;;2.63;2.53;;;19.40;65.50;;;;;;5040474;28;44466;-77
2022/09/29 13:09:47;;;;;;;2.50;2.40;;;19.50;65.10;;;;;;4981347;28;43533;-77
2022/09/29 13:12:22;;;;;;;2.90;2.70;;;19.70;64.40;;;;;;4987359;28;44062;-76